sensor_id;sensor_type;location;lat;lon;timestamp;P1;durP1;ratioP1;P2;durP2;ratioP2
75386;SDS011;63966;47.914;22.266;2024-02-04T00:01:54;15.10;;;9.20;;
75386;SDS011;63966;47.914;22.266;2024-02-04T00:04:57;16.77;;;9.93;;
75386;SDS011;63966;47.914;22.266;2024-02-04T00:08:01;17.25;;;10.45;;
75386;SDS011;63966;47.914;22.266;2024-02-04T00:11:04;21.47;;;10.90;;
75386;SDS011;63966;47.914;22.266;2024-02-04T00:14:09;18.42;;;10.00;;
75386;SDS011;63966;47.914;22.266;2024-02-04T00:17:13;17.85;;;10.07;;
75386;SDS011;63966;47.914;22.266;2024-02-04T00:20:17;17.92;;;9.20;;
75386;SDS011;63966;47.914;22.266;2024-02-04T00:23:20;16.00;;;8.95;;
75386;SDS011;63966;47.914;22.266;2024-02-04T00:26:24;16.87;;;8.87;;
75386;SDS011;63966;47.914;22.266;2024-02-04T00:29:27;17.23;;;9.60;;
75386;SDS011;63966;47.914;22.266;2024-02-04T00:32:30;17.35;;;9.15;;
75386;SDS011;63966;47.914;22.266;2024-02-04T00:35:34;14.60;;;8.80;;
75386;SDS011;63966;47.914;22.266;2024-02-04T00:38:37;14.13;;;8.20;;
75386;SDS011;63966;47.914;22.266;2024-02-04T00:41:41;16.03;;;8.27;;
75386;SDS011;63966;47.914;22.266;2024-02-04T00:44:44;16.63;;;8.80;;
75386;SDS011;63966;47.914;22.266;2024-02-04T00:47:48;14.90;;;8.13;;
75386;SDS011;63966;47.914;22.266;2024-02-04T00:50:51;13.73;;;7.32;;
75386;SDS011;63966;47.914;22.266;2024-02-04T00:53:54;13.00;;;7.40;;
75386;SDS011;63966;47.914;22.266;2024-02-04T00:56:58;14.03;;;7.77;;
75386;SDS011;63966;47.914;22.266;2024-02-04T01:00:03;14.57;;;8.18;;
75386;SDS011;63966;47.914;22.266;2024-02-04T01:03:07;11.73;;;7.00;;
75386;SDS011;63966;47.914;22.266;2024-02-04T01:06:11;14.32;;;7.55;;
75386;SDS011;63966;47.914;22.266;2024-02-04T01:09:14;13.00;;;7.43;;
75386;SDS011;63966;47.914;22.266;2024-02-04T01:12:18;13.00;;;7.47;;
75386;SDS011;63966;47.914;22.266;2024-02-04T01:15:21;12.85;;;7.00;;
75386;SDS011;63966;47.914;22.266;2024-02-04T01:18:25;14.88;;;6.63;;
75386;SDS011;63966;47.914;22.266;2024-02-04T01:21:28;12.20;;;7.35;;
75386;SDS011;63966;47.914;22.266;2024-02-04T01:24:32;12.35;;;7.38;;
75386;SDS011;63966;47.914;22.266;2024-02-04T01:27:35;13.83;;;7.60;;
75386;SDS011;63966;47.914;22.266;2024-02-04T01:30:39;12.32;;;7.22;;
75386;SDS011;63966;47.914;22.266;2024-02-04T01:33:42;14.25;;;7.47;;
75386;SDS011;63966;47.914;22.266;2024-02-04T01:36:46;14.88;;;6.72;;
75386;SDS011;63966;47.914;22.266;2024-02-04T01:39:49;12.18;;;6.80;;
75386;SDS011;63966;47.914;22.266;2024-02-04T01:42:52;16.27;;;7.77;;
75386;SDS011;63966;47.914;22.266;2024-02-04T01:45:56;11.18;;;6.78;;
75386;SDS011;63966;47.914;22.266;2024-02-04T01:49:00;13.10;;;7.90;;
75386;SDS011;63966;47.914;22.266;2024-02-04T01:52:05;12.82;;;7.03;;
75386;SDS011;63966;47.914;22.266;2024-02-04T01:55:09;13.18;;;6.93;;
75386;SDS011;63966;47.914;22.266;2024-02-04T01:58:14;15.87;;;8.23;;
75386;SDS011;63966;47.914;22.266;2024-02-04T02:01:17;14.88;;;7.85;;
75386;SDS011;63966;47.914;22.266;2024-02-04T02:04:21;12.52;;;7.35;;
75386;SDS011;63966;47.914;22.266;2024-02-04T02:07:25;14.18;;;7.65;;
75386;SDS011;63966;47.914;22.266;2024-02-04T02:10:29;14.98;;;8.32;;
75386;SDS011;63966;47.914;22.266;2024-02-04T02:13:33;15.40;;;8.07;;
75386;SDS011;63966;47.914;22.266;2024-02-04T02:16:38;13.50;;;7.47;;
75386;SDS011;63966;47.914;22.266;2024-02-04T02:23:11;12.77;;;6.82;;
75386;SDS011;63966;47.914;22.266;2024-02-04T02:26:20;11.95;;;6.70;;
75386;SDS011;63966;47.914;22.266;2024-02-04T02:29:25;12.13;;;6.93;;
75386;SDS011;63966;47.914;22.266;2024-02-04T02:32:28;12.65;;;6.35;;
75386;SDS011;63966;47.914;22.266;2024-02-04T02:35:32;10.38;;;6.80;;
75386;SDS011;63966;47.914;22.266;2024-02-04T02:42:15;12.43;;;6.45;;
75386;SDS011;63966;47.914;22.266;2024-02-04T02:45:21;12.80;;;6.63;;
75386;SDS011;63966;47.914;22.266;2024-02-04T02:48:28;10.65;;;6.10;;
75386;SDS011;63966;47.914;22.266;2024-02-04T02:51:31;12.48;;;6.35;;
75386;SDS011;63966;47.914;22.266;2024-02-04T02:54:35;12.80;;;6.80;;
75386;SDS011;63966;47.914;22.266;2024-02-04T02:57:38;13.25;;;6.55;;
75386;SDS011;63966;47.914;22.266;2024-02-04T03:00:42;13.27;;;6.47;;
75386;SDS011;63966;47.914;22.266;2024-02-04T03:03:47;10.88;;;6.22;;
75386;SDS011;63966;47.914;22.266;2024-02-04T03:06:51;12.82;;;6.93;;
75386;SDS011;63966;47.914;22.266;2024-02-04T03:09:55;14.23;;;7.63;;
75386;SDS011;63966;47.914;22.266;2024-02-04T03:12:58;14.65;;;7.53;;
75386;SDS011;63966;47.914;22.266;2024-02-04T03:16:03;14.00;;;7.80;;
75386;SDS011;63966;47.914;22.266;2024-02-04T03:19:07;13.63;;;6.95;;
75386;SDS011;63966;47.914;22.266;2024-02-04T03:22:11;13.05;;;6.65;;
75386;SDS011;63966;47.914;22.266;2024-02-04T03:25:15;12.18;;;6.63;;
75386;SDS011;63966;47.914;22.266;2024-02-04T03:28:18;13.90;;;7.22;;
75386;SDS011;63966;47.914;22.266;2024-02-04T03:31:22;13.93;;;7.03;;
75386;SDS011;63966;47.914;22.266;2024-02-04T03:34:26;16.50;;;8.23;;
75386;SDS011;63966;47.914;22.266;2024-02-04T03:37:30;17.75;;;7.97;;
75386;SDS011;63966;47.914;22.266;2024-02-04T03:40:33;17.27;;;8.63;;
75386;SDS011;63966;47.914;22.266;2024-02-04T03:43:37;15.43;;;7.88;;
75386;SDS011;63966;47.914;22.266;2024-02-04T03:46:40;15.17;;;7.83;;
75386;SDS011;63966;47.914;22.266;2024-02-04T03:49:44;12.88;;;6.97;;
75386;SDS011;63966;47.914;22.266;2024-02-04T03:52:50;16.20;;;8.57;;
75386;SDS011;63966;47.914;22.266;2024-02-04T03:55:54;14.93;;;7.60;;
75386;SDS011;63966;47.914;22.266;2024-02-04T03:58:57;13.00;;;6.95;;
75386;SDS011;63966;47.914;22.266;2024-02-04T04:02:01;13.40;;;6.63;;
75386;SDS011;63966;47.914;22.266;2024-02-04T04:05:05;11.85;;;6.22;;
75386;SDS011;63966;47.914;22.266;2024-02-04T04:08:09;12.73;;;6.20;;
75386;SDS011;63966;47.914;22.266;2024-02-04T04:11:12;9.98;;;5.90;;
75386;SDS011;63966;47.914;22.266;2024-02-04T04:14:16;12.32;;;6.50;;
75386;SDS011;63966;47.914;22.266;2024-02-04T04:17:19;12.13;;;6.60;;
75386;SDS011;63966;47.914;22.266;2024-02-04T04:20:22;10.90;;;5.53;;
75386;SDS011;63966;47.914;22.266;2024-02-04T04:23:26;10.48;;;6.07;;
75386;SDS011;63966;47.914;22.266;2024-02-04T04:26:29;10.48;;;5.65;;
75386;SDS011;63966;47.914;22.266;2024-02-04T04:29:33;10.38;;;5.28;;
75386;SDS011;63966;47.914;22.266;2024-02-04T04:32:37;10.90;;;6.27;;
75386;SDS011;63966;47.914;22.266;2024-02-04T04:35:40;10.48;;;5.88;;
75386;SDS011;63966;47.914;22.266;2024-02-04T04:38:44;10.32;;;5.40;;
75386;SDS011;63966;47.914;22.266;2024-02-04T04:41:47;10.52;;;5.60;;
75386;SDS011;63966;47.914;22.266;2024-02-04T04:44:51;9.40;;;5.13;;
75386;SDS011;63966;47.914;22.266;2024-02-04T04:47:54;10.17;;;5.37;;
75386;SDS011;63966;47.914;22.266;2024-02-04T04:50:58;12.85;;;5.50;;
75386;SDS011;63966;47.914;22.266;2024-02-04T04:54:01;13.75;;;6.22;;
75386;SDS011;63966;47.914;22.266;2024-02-04T04:57:04;10.13;;;5.07;;
75386;SDS011;63966;47.914;22.266;2024-02-04T05:00:08;9.95;;;5.57;;
75386;SDS011;63966;47.914;22.266;2024-02-04T05:03:13;9.47;;;5.00;;
75386;SDS011;63966;47.914;22.266;2024-02-04T05:06:16;8.90;;;4.65;;
75386;SDS011;63966;47.914;22.266;2024-02-04T05:09:20;11.15;;;5.22;;
75386;SDS011;63966;47.914;22.266;2024-02-04T05:12:23;9.80;;;5.43;;
75386;SDS011;63966;47.914;22.266;2024-02-04T05:15:26;10.88;;;5.63;;
75386;SDS011;63966;47.914;22.266;2024-02-04T05:18:32;9.33;;;4.97;;
75386;SDS011;63966;47.914;22.266;2024-02-04T05:21:37;9.75;;;5.10;;
75386;SDS011;63966;47.914;22.266;2024-02-04T05:24:42;9.68;;;5.07;;
75386;SDS011;63966;47.914;22.266;2024-02-04T05:27:46;8.93;;;5.13;;
75386;SDS011;63966;47.914;22.266;2024-02-04T05:30:49;7.63;;;4.35;;
75386;SDS011;63966;47.914;22.266;2024-02-04T05:33:53;11.13;;;5.63;;
75386;SDS011;63966;47.914;22.266;2024-02-04T05:36:58;10.77;;;5.25;;
75386;SDS011;63966;47.914;22.266;2024-02-04T05:40:02;11.32;;;5.20;;
75386;SDS011;63966;47.914;22.266;2024-02-04T05:43:06;10.77;;;4.95;;
75386;SDS011;63966;47.914;22.266;2024-02-04T05:46:14;9.68;;;5.13;;
75386;SDS011;63966;47.914;22.266;2024-02-04T05:49:18;10.37;;;5.00;;
75386;SDS011;63966;47.914;22.266;2024-02-04T05:52:21;9.57;;;4.78;;
75386;SDS011;63966;47.914;22.266;2024-02-04T05:55:25;8.40;;;4.97;;
75386;SDS011;63966;47.914;22.266;2024-02-04T05:58:28;10.18;;;4.75;;
75386;SDS011;63966;47.914;22.266;2024-02-04T06:01:32;9.23;;;4.65;;
75386;SDS011;63966;47.914;22.266;2024-02-04T06:04:36;8.37;;;4.73;;
75386;SDS011;63966;47.914;22.266;2024-02-04T06:07:42;8.63;;;4.32;;
75386;SDS011;63966;47.914;22.266;2024-02-04T06:10:46;7.55;;;4.03;;
75386;SDS011;63966;47.914;22.266;2024-02-04T06:13:49;9.75;;;5.00;;
75386;SDS011;63966;47.914;22.266;2024-02-04T06:16:55;11.10;;;5.68;;
75386;SDS011;63966;47.914;22.266;2024-02-04T06:19:59;12.27;;;5.60;;
75386;SDS011;63966;47.914;22.266;2024-02-04T06:23:03;11.57;;;5.60;;
75386;SDS011;63966;47.914;22.266;2024-02-04T06:26:06;9.88;;;4.95;;
75386;SDS011;63966;47.914;22.266;2024-02-04T06:29:10;9.05;;;4.38;;
75386;SDS011;63966;47.914;22.266;2024-02-04T06:32:13;10.25;;;5.00;;
75386;SDS011;63966;47.914;22.266;2024-02-04T06:35:17;8.63;;;4.80;;
75386;SDS011;63966;47.914;22.266;2024-02-04T06:38:20;8.68;;;4.63;;
75386;SDS011;63966;47.914;22.266;2024-02-04T06:41:24;8.48;;;4.70;;
75386;SDS011;63966;47.914;22.266;2024-02-04T06:44:27;9.55;;;4.45;;
75386;SDS011;63966;47.914;22.266;2024-02-04T06:47:30;8.27;;;4.30;;
75386;SDS011;63966;47.914;22.266;2024-02-04T06:50:34;8.27;;;4.67;;
75386;SDS011;63966;47.914;22.266;2024-02-04T06:53:37;8.60;;;4.35;;
75386;SDS011;63966;47.914;22.266;2024-02-04T06:56:41;8.32;;;4.60;;
75386;SDS011;63966;47.914;22.266;2024-02-04T06:59:44;8.10;;;4.50;;
75386;SDS011;63966;47.914;22.266;2024-02-04T07:02:48;9.40;;;4.95;;
75386;SDS011;63966;47.914;22.266;2024-02-04T07:05:55;9.07;;;4.77;;
75386;SDS011;63966;47.914;22.266;2024-02-04T07:09:00;8.55;;;4.07;;
75386;SDS011;63966;47.914;22.266;2024-02-04T07:12:03;8.52;;;4.50;;
75386;SDS011;63966;47.914;22.266;2024-02-04T07:15:07;9.80;;;4.13;;
75386;SDS011;63966;47.914;22.266;2024-02-04T07:18:11;8.13;;;4.53;;
75386;SDS011;63966;47.914;22.266;2024-02-04T07:21:14;10.23;;;5.30;;
75386;SDS011;63966;47.914;22.266;2024-02-04T07:24:18;21.35;;;10.45;;
75386;SDS011;63966;47.914;22.266;2024-02-04T07:27:21;16.35;;;9.57;;
75386;SDS011;63966;47.914;22.266;2024-02-04T07:30:24;11.93;;;7.50;;
75386;SDS011;63966;47.914;22.266;2024-02-04T07:33:28;8.77;;;5.70;;
75386;SDS011;63966;47.914;22.266;2024-02-04T07:36:34;8.17;;;5.27;;
75386;SDS011;63966;47.914;22.266;2024-02-04T07:39:38;8.60;;;4.70;;
75386;SDS011;63966;47.914;22.266;2024-02-04T07:42:41;10.20;;;6.03;;
75386;SDS011;63966;47.914;22.266;2024-02-04T07:45:45;9.05;;;6.32;;
75386;SDS011;63966;47.914;22.266;2024-02-04T07:48:48;9.45;;;7.18;;
75386;SDS011;63966;47.914;22.266;2024-02-04T07:51:52;8.17;;;5.33;;
75386;SDS011;63966;47.914;22.266;2024-02-04T07:54:55;9.68;;;5.38;;
75386;SDS011;63966;47.914;22.266;2024-02-04T07:57:59;9.25;;;5.70;;
75386;SDS011;63966;47.914;22.266;2024-02-04T08:01:02;10.60;;;6.50;;
75386;SDS011;63966;47.914;22.266;2024-02-04T08:04:06;10.38;;;6.57;;
75386;SDS011;63966;47.914;22.266;2024-02-04T08:07:13;11.07;;;6.80;;
75386;SDS011;63966;47.914;22.266;2024-02-04T08:10:17;12.30;;;7.82;;
75386;SDS011;63966;47.914;22.266;2024-02-04T08:13:20;10.68;;;6.53;;
75386;SDS011;63966;47.914;22.266;2024-02-04T08:16:23;9.75;;;5.78;;
75386;SDS011;63966;47.914;22.266;2024-02-04T08:19:27;16.38;;;10.35;;
75386;SDS011;63966;47.914;22.266;2024-02-04T08:22:31;15.07;;;9.50;;
75386;SDS011;63966;47.914;22.266;2024-02-04T08:25:34;9.13;;;5.93;;
75386;SDS011;63966;47.914;22.266;2024-02-04T08:28:38;10.10;;;6.90;;
75386;SDS011;63966;47.914;22.266;2024-02-04T08:31:42;9.00;;;5.72;;
75386;SDS011;63966;47.914;22.266;2024-02-04T08:34:45;7.25;;;4.25;;
75386;SDS011;63966;47.914;22.266;2024-02-04T08:37:49;6.97;;;4.30;;
75386;SDS011;63966;47.914;22.266;2024-02-04T08:40:52;7.78;;;4.10;;
75386;SDS011;63966;47.914;22.266;2024-02-04T08:43:55;7.30;;;3.78;;
75386;SDS011;63966;47.914;22.266;2024-02-04T08:47:02;6.47;;;3.80;;
75386;SDS011;63966;47.914;22.266;2024-02-04T08:50:06;6.10;;;3.50;;
75386;SDS011;63966;47.914;22.266;2024-02-04T08:53:10;5.07;;;3.10;;
75386;SDS011;63966;47.914;22.266;2024-02-04T08:56:13;5.80;;;3.20;;
75386;SDS011;63966;47.914;22.266;2024-02-04T08:59:17;6.60;;;3.45;;
75386;SDS011;63966;47.914;22.266;2024-02-04T09:02:20;6.63;;;3.40;;
75386;SDS011;63966;47.914;22.266;2024-02-04T09:05:23;6.13;;;3.13;;
75386;SDS011;63966;47.914;22.266;2024-02-04T09:08:27;7.13;;;3.00;;
75386;SDS011;63966;47.914;22.266;2024-02-04T09:11:31;5.70;;;2.92;;
75386;SDS011;63966;47.914;22.266;2024-02-04T09:14:35;6.72;;;3.50;;
75386;SDS011;63966;47.914;22.266;2024-02-04T09:17:38;5.90;;;3.00;;
75386;SDS011;63966;47.914;22.266;2024-02-04T09:20:42;6.00;;;3.03;;
75386;SDS011;63966;47.914;22.266;2024-02-04T09:23:46;6.43;;;2.97;;
75386;SDS011;63966;47.914;22.266;2024-02-04T09:26:49;7.55;;;3.15;;
75386;SDS011;63966;47.914;22.266;2024-02-04T09:29:53;5.90;;;3.33;;
75386;SDS011;63966;47.914;22.266;2024-02-04T09:32:57;6.10;;;3.40;;
75386;SDS011;63966;47.914;22.266;2024-02-04T09:36:01;7.65;;;3.60;;
75386;SDS011;63966;47.914;22.266;2024-02-04T09:39:05;6.27;;;3.60;;
75386;SDS011;63966;47.914;22.266;2024-02-04T09:42:10;7.25;;;3.83;;
75386;SDS011;63966;47.914;22.266;2024-02-04T09:45:19;7.35;;;4.10;;
75386;SDS011;63966;47.914;22.266;2024-02-04T09:48:22;6.30;;;3.50;;
75386;SDS011;63966;47.914;22.266;2024-02-04T09:51:28;7.07;;;3.83;;
75386;SDS011;63966;47.914;22.266;2024-02-04T09:54:32;7.60;;;3.80;;
75386;SDS011;63966;47.914;22.266;2024-02-04T09:57:47;6.47;;;3.47;;
75386;SDS011;63966;47.914;22.266;2024-02-04T10:00:51;7.82;;;4.53;;
75386;SDS011;63966;47.914;22.266;2024-02-04T10:03:55;6.32;;;3.47;;
75386;SDS011;63966;47.914;22.266;2024-02-04T10:06:59;8.25;;;4.10;;
75386;SDS011;63966;47.914;22.266;2024-02-04T10:10:05;7.47;;;3.70;;
75386;SDS011;63966;47.914;22.266;2024-02-04T10:13:10;6.78;;;3.70;;
75386;SDS011;63966;47.914;22.266;2024-02-04T10:16:14;7.50;;;3.50;;
75386;SDS011;63966;47.914;22.266;2024-02-04T10:19:18;6.57;;;3.72;;
75386;SDS011;63966;47.914;22.266;2024-02-04T10:22:22;7.20;;;3.83;;
75386;SDS011;63966;47.914;22.266;2024-02-04T10:25:28;6.27;;;3.57;;
75386;SDS011;63966;47.914;22.266;2024-02-04T10:28:32;6.10;;;3.00;;
75386;SDS011;63966;47.914;22.266;2024-02-04T10:31:36;6.97;;;3.22;;
75386;SDS011;63966;47.914;22.266;2024-02-04T10:34:39;6.75;;;3.28;;
75386;SDS011;63966;47.914;22.266;2024-02-04T10:37:43;8.85;;;4.45;;
75386;SDS011;63966;47.914;22.266;2024-02-04T10:40:49;7.27;;;3.73;;
75386;SDS011;63966;47.914;22.266;2024-02-04T10:43:55;9.45;;;3.97;;
75386;SDS011;63966;47.914;22.266;2024-02-04T10:47:01;9.27;;;4.07;;
75386;SDS011;63966;47.914;22.266;2024-02-04T10:50:12;8.90;;;3.60;;
75386;SDS011;63966;47.914;22.266;2024-02-04T10:53:18;7.53;;;4.03;;
75386;SDS011;63966;47.914;22.266;2024-02-04T10:59:32;6.85;;;3.30;;
75386;SDS011;63966;47.914;22.266;2024-02-04T11:02:38;5.95;;;3.20;;
75386;SDS011;63966;47.914;22.266;2024-02-04T11:05:45;7.03;;;3.40;;
75386;SDS011;63966;47.914;22.266;2024-02-04T11:08:51;8.00;;;3.78;;
75386;SDS011;63966;47.914;22.266;2024-02-04T11:11:58;8.23;;;3.90;;
75386;SDS011;63966;47.914;22.266;2024-02-04T11:15:04;6.72;;;3.50;;
75386;SDS011;63966;47.914;22.266;2024-02-04T11:25:29;8.25;;;3.28;;
75386;SDS011;63966;47.914;22.266;2024-02-04T11:28:48;8.20;;;4.10;;
75386;SDS011;63966;47.914;22.266;2024-02-04T11:31:51;6.85;;;3.55;;
75386;SDS011;63966;47.914;22.266;2024-02-04T11:34:58;6.60;;;3.78;;
75386;SDS011;63966;47.914;22.266;2024-02-04T11:38:05;7.43;;;3.67;;
75386;SDS011;63966;47.914;22.266;2024-02-04T11:41:09;10.95;;;4.97;;
75386;SDS011;63966;47.914;22.266;2024-02-04T11:44:23;6.07;;;3.40;;
75386;SDS011;63966;47.914;22.266;2024-02-04T11:47:28;6.93;;;3.92;;
75386;SDS011;63966;47.914;22.266;2024-02-04T11:50:32;7.70;;;3.40;;
75386;SDS011;63966;47.914;22.266;2024-02-04T11:53:36;7.43;;;3.97;;
75386;SDS011;63966;47.914;22.266;2024-02-04T11:56:41;6.45;;;3.70;;
75386;SDS011;63966;47.914;22.266;2024-02-04T11:59:45;7.27;;;3.50;;
75386;SDS011;63966;47.914;22.266;2024-02-04T12:02:59;7.10;;;3.30;;
75386;SDS011;63966;47.914;22.266;2024-02-04T12:06:11;6.90;;;3.38;;
75386;SDS011;63966;47.914;22.266;2024-02-04T12:09:17;6.50;;;3.60;;
75386;SDS011;63966;47.914;22.266;2024-02-04T12:12:21;6.70;;;3.10;;
75386;SDS011;63966;47.914;22.266;2024-02-04T12:15:27;6.07;;;3.50;;
75386;SDS011;63966;47.914;22.266;2024-02-04T12:18:32;7.38;;;3.80;;
75386;SDS011;63966;47.914;22.266;2024-02-04T12:21:36;7.10;;;3.47;;
75386;SDS011;63966;47.914;22.266;2024-02-04T12:24:40;13.45;;;9.10;;
75386;SDS011;63966;47.914;22.266;2024-02-04T12:27:44;13.57;;;9.80;;
75386;SDS011;63966;47.914;22.266;2024-02-04T12:30:53;7.67;;;5.10;;
75386;SDS011;63966;47.914;22.266;2024-02-04T12:33:58;8.27;;;5.30;;
75386;SDS011;63966;47.914;22.266;2024-02-04T12:37:04;6.97;;;4.07;;
75386;SDS011;63966;47.914;22.266;2024-02-04T12:40:08;6.25;;;3.75;;
75386;SDS011;63966;47.914;22.266;2024-02-04T12:43:14;7.35;;;3.50;;
75386;SDS011;63966;47.914;22.266;2024-02-04T12:46:18;8.17;;;3.30;;
75386;SDS011;63966;47.914;22.266;2024-02-04T12:49:24;6.95;;;3.80;;
75386;SDS011;63966;47.914;22.266;2024-02-04T12:52:28;8.45;;;4.00;;
75386;SDS011;63966;47.914;22.266;2024-02-04T12:55:36;8.50;;;3.70;;
75386;SDS011;63966;47.914;22.266;2024-02-04T12:58:43;7.65;;;4.32;;
75386;SDS011;63966;47.914;22.266;2024-02-04T13:01:50;7.40;;;3.90;;
75386;SDS011;63966;47.914;22.266;2024-02-04T13:05:03;7.38;;;3.63;;
75386;SDS011;63966;47.914;22.266;2024-02-04T13:08:10;6.60;;;3.75;;
75386;SDS011;63966;47.914;22.266;2024-02-04T13:11:19;8.25;;;4.00;;
75386;SDS011;63966;47.914;22.266;2024-02-04T13:14:22;11.93;;;6.78;;
75386;SDS011;63966;47.914;22.266;2024-02-04T13:17:28;13.53;;;7.83;;
75386;SDS011;63966;47.914;22.266;2024-02-04T13:20:31;11.57;;;6.90;;
75386;SDS011;63966;47.914;22.266;2024-02-04T13:23:35;11.93;;;6.95;;
75386;SDS011;63966;47.914;22.266;2024-02-04T13:26:39;11.35;;;7.00;;
75386;SDS011;63966;47.914;22.266;2024-02-04T13:29:43;9.38;;;6.05;;
75386;SDS011;63966;47.914;22.266;2024-02-04T13:32:47;10.60;;;6.67;;
75386;SDS011;63966;47.914;22.266;2024-02-04T13:35:50;13.02;;;6.95;;
75386;SDS011;63966;47.914;22.266;2024-02-04T13:38:54;11.73;;;6.43;;
75386;SDS011;63966;47.914;22.266;2024-02-04T13:41:57;9.07;;;4.82;;
75386;SDS011;63966;47.914;22.266;2024-02-04T13:45:01;7.88;;;4.57;;
75386;SDS011;63966;47.914;22.266;2024-02-04T13:48:05;8.70;;;4.83;;
75386;SDS011;63966;47.914;22.266;2024-02-04T13:51:09;6.85;;;3.95;;
75386;SDS011;63966;47.914;22.266;2024-02-04T13:54:12;9.25;;;4.78;;
75386;SDS011;63966;47.914;22.266;2024-02-04T13:57:20;10.18;;;5.70;;
75386;SDS011;63966;47.914;22.266;2024-02-04T14:00:23;15.15;;;7.68;;
75386;SDS011;63966;47.914;22.266;2024-02-04T14:03:27;17.17;;;9.17;;
75386;SDS011;63966;47.914;22.266;2024-02-04T14:06:30;16.13;;;9.00;;
75386;SDS011;63966;47.914;22.266;2024-02-04T14:09:34;12.82;;;7.25;;
75386;SDS011;63966;47.914;22.266;2024-02-04T14:12:37;12.05;;;6.20;;
75386;SDS011;63966;47.914;22.266;2024-02-04T14:15:42;11.40;;;6.00;;
75386;SDS011;63966;47.914;22.266;2024-02-04T14:18:45;10.60;;;6.27;;
75386;SDS011;63966;47.914;22.266;2024-02-04T14:21:49;14.50;;;7.10;;
75386;SDS011;63966;47.914;22.266;2024-02-04T14:24:52;15.88;;;7.82;;
75386;SDS011;63966;47.914;22.266;2024-02-04T14:27:56;13.82;;;7.13;;
75386;SDS011;63966;47.914;22.266;2024-02-04T14:31:00;11.40;;;5.60;;
75386;SDS011;63966;47.914;22.266;2024-02-04T14:34:04;7.13;;;3.13;;
75386;SDS011;63966;47.914;22.266;2024-02-04T14:37:08;4.60;;;2.42;;
75386;SDS011;63966;47.914;22.266;2024-02-04T14:40:16;7.53;;;2.50;;
75386;SDS011;63966;47.914;22.266;2024-02-04T14:43:19;12.80;;;5.32;;
75386;SDS011;63966;47.914;22.266;2024-02-04T14:46:25;15.13;;;6.20;;
75386;SDS011;63966;47.914;22.266;2024-02-04T14:49:29;11.57;;;4.97;;
75386;SDS011;63966;47.914;22.266;2024-02-04T14:52:33;6.20;;;2.30;;
75386;SDS011;63966;47.914;22.266;2024-02-04T14:55:37;6.75;;;2.50;;
75386;SDS011;63966;47.914;22.266;2024-02-04T14:58:41;6.38;;;2.50;;
75386;SDS011;63966;47.914;22.266;2024-02-04T15:01:45;5.93;;;2.10;;
75386;SDS011;63966;47.914;22.266;2024-02-04T15:04:49;5.40;;;1.93;;
75386;SDS011;63966;47.914;22.266;2024-02-04T15:07:52;8.23;;;2.70;;
75386;SDS011;63966;47.914;22.266;2024-02-04T15:10:56;7.68;;;3.15;;
75386;SDS011;63966;47.914;22.266;2024-02-04T15:14:00;8.57;;;3.60;;
75386;SDS011;63966;47.914;22.266;2024-02-04T15:17:04;11.52;;;4.78;;
75386;SDS011;63966;47.914;22.266;2024-02-04T15:20:08;8.07;;;3.47;;
75386;SDS011;63966;47.914;22.266;2024-02-04T15:23:19;11.98;;;5.75;;
75386;SDS011;63966;47.914;22.266;2024-02-04T15:26:23;18.85;;;9.95;;
75386;SDS011;63966;47.914;22.266;2024-02-04T15:29:29;26.45;;;10.10;;
75386;SDS011;63966;47.914;22.266;2024-02-04T15:32:35;27.63;;;11.88;;
75386;SDS011;63966;47.914;22.266;2024-02-04T15:35:39;24.90;;;10.07;;
75386;SDS011;63966;47.914;22.266;2024-02-04T15:38:43;16.92;;;6.45;;
75386;SDS011;63966;47.914;22.266;2024-02-04T15:41:47;18.67;;;8.15;;
75386;SDS011;63966;47.914;22.266;2024-02-04T15:44:50;7.68;;;3.97;;
75386;SDS011;63966;47.914;22.266;2024-02-04T15:47:54;9.93;;;3.65;;
75386;SDS011;63966;47.914;22.266;2024-02-04T15:50:59;16.73;;;5.50;;
75386;SDS011;63966;47.914;22.266;2024-02-04T15:54:03;20.02;;;7.95;;
75386;SDS011;63966;47.914;22.266;2024-02-04T15:57:10;7.15;;;3.22;;
75386;SDS011;63966;47.914;22.266;2024-02-04T16:00:19;5.90;;;2.78;;
75386;SDS011;63966;47.914;22.266;2024-02-04T16:03:29;8.95;;;3.53;;
75386;SDS011;63966;47.914;22.266;2024-02-04T16:06:34;10.40;;;3.20;;
75386;SDS011;63966;47.914;22.266;2024-02-04T16:09:39;8.13;;;3.28;;
75386;SDS011;63966;47.914;22.266;2024-02-04T16:15:57;7.13;;;2.80;;
75386;SDS011;63966;47.914;22.266;2024-02-04T16:19:05;8.55;;;3.40;;
75386;SDS011;63966;47.914;22.266;2024-02-04T16:22:11;11.43;;;4.97;;
75386;SDS011;63966;47.914;22.266;2024-02-04T16:25:17;7.88;;;4.50;;
75386;SDS011;63966;47.914;22.266;2024-02-04T16:28:21;7.72;;;4.03;;
75386;SDS011;63966;47.914;22.266;2024-02-04T16:31:25;8.20;;;4.40;;
75386;SDS011;63966;47.914;22.266;2024-02-04T16:34:28;7.78;;;4.00;;
75386;SDS011;63966;47.914;22.266;2024-02-04T16:37:36;6.10;;;3.40;;
75386;SDS011;63966;47.914;22.266;2024-02-04T16:40:39;6.15;;;3.00;;
75386;SDS011;63966;47.914;22.266;2024-02-04T16:43:43;5.45;;;2.72;;
75386;SDS011;63966;47.914;22.266;2024-02-04T16:46:47;5.07;;;2.10;;
75386;SDS011;63966;47.914;22.266;2024-02-04T16:49:51;5.00;;;2.70;;
75386;SDS011;63966;47.914;22.266;2024-02-04T16:52:54;4.17;;;2.00;;
75386;SDS011;63966;47.914;22.266;2024-02-04T16:55:58;5.50;;;2.08;;
75386;SDS011;63966;47.914;22.266;2024-02-04T16:59:02;3.45;;;1.52;;
75386;SDS011;63966;47.914;22.266;2024-02-04T17:02:05;6.65;;;3.38;;
75386;SDS011;63966;47.914;22.266;2024-02-04T17:05:09;6.57;;;3.95;;
75386;SDS011;63966;47.914;22.266;2024-02-04T17:08:14;8.13;;;4.80;;
75386;SDS011;63966;47.914;22.266;2024-02-04T17:11:18;6.13;;;2.75;;
75386;SDS011;63966;47.914;22.266;2024-02-04T17:14:23;5.60;;;2.45;;
75386;SDS011;63966;47.914;22.266;2024-02-04T17:17:28;6.07;;;2.58;;
75386;SDS011;63966;47.914;22.266;2024-02-04T17:20:42;4.65;;;2.00;;
75386;SDS011;63966;47.914;22.266;2024-02-04T17:23:50;4.63;;;1.93;;
75386;SDS011;63966;47.914;22.266;2024-02-04T17:27:01;4.20;;;1.92;;
75386;SDS011;63966;47.914;22.266;2024-02-04T17:30:09;4.30;;;2.00;;
75386;SDS011;63966;47.914;22.266;2024-02-04T17:33:13;4.60;;;1.90;;
75386;SDS011;63966;47.914;22.266;2024-02-04T17:36:19;4.22;;;1.88;;
75386;SDS011;63966;47.914;22.266;2024-02-04T17:39:22;5.20;;;2.20;;
75386;SDS011;63966;47.914;22.266;2024-02-04T17:42:29;9.73;;;5.35;;
75386;SDS011;63966;47.914;22.266;2024-02-04T17:45:33;9.93;;;6.15;;
75386;SDS011;63966;47.914;22.266;2024-02-04T17:48:37;4.85;;;2.00;;
75386;SDS011;63966;47.914;22.266;2024-02-04T17:51:43;3.75;;;2.10;;
75386;SDS011;63966;47.914;22.266;2024-02-04T17:54:51;3.83;;;1.60;;
75386;SDS011;63966;47.914;22.266;2024-02-04T17:57:56;4.55;;;2.25;;
75386;SDS011;63966;47.914;22.266;2024-02-04T18:01:03;3.65;;;1.80;;
75386;SDS011;63966;47.914;22.266;2024-02-04T18:04:07;4.32;;;1.70;;
75386;SDS011;63966;47.914;22.266;2024-02-04T18:07:11;4.35;;;1.80;;
75386;SDS011;63966;47.914;22.266;2024-02-04T18:10:15;4.73;;;2.03;;
75386;SDS011;63966;47.914;22.266;2024-02-04T18:13:19;4.57;;;1.70;;
75386;SDS011;63966;47.914;22.266;2024-02-04T18:16:23;3.60;;;1.60;;
75386;SDS011;63966;47.914;22.266;2024-02-04T18:19:27;5.53;;;2.10;;
75386;SDS011;63966;47.914;22.266;2024-02-04T18:22:31;4.22;;;1.70;;
75386;SDS011;63966;47.914;22.266;2024-02-04T18:25:35;4.43;;;2.10;;
75386;SDS011;63966;47.914;22.266;2024-02-04T18:28:38;4.00;;;1.50;;